Amsterdam, MO

1:53 PM CDT on August 24, 2019 (GMT -0500)
NW of Amsterdam, MO | | Change Station
Active Advisory: Flood Warning

Elev 906 ft 38.36 °N, 94.61 °W | Updated 22 seconds ago

Overcast
Overcast
74.3 °F
Feels Like 75 °F
N
0.7
Wind Variable Wind from South
Gusts 1.1 mph

Today
High -- | Low -- °F
--% Chance of Precip.
Yesterday
High -- | Low -- °F
Precip. -- in
Pressure 30.07 in
Visibility 10.0 miles
Clouds Mostly Cloudy 2200 ft
Overcast 3700 ft
Heat Index 75 °F
Dew Point 68 °F
Humidity 80%
Rainfall 0.15 in
Snow Depth Not available.
6:40 AM 8:00 PM
Last Quarter, 38% visible
SPECI KOJC 241817Z 10011KT 10SM BKN022 OVC037 22/18 A3007 RMK AO2 T02170178
Pressure 30.07 in
Visibility 10.0 miles
Clouds Mostly Cloudy 2200 ft
Overcast 3700 ft
Heat Index 75 °F
Dew Point 68 °F
Humidity 80%
Rainfall 0.15 in
Snow Depth Not available.
6:40 AM 8:00 PM
Last Quarter, 38% visible
SPECI KOJC 241817Z 10011KT 10SM BKN022 OVC037 22/18 A3007 RMK AO2 T02170178

Get Your Daily Forecast Email!

Thanks for signing up!

Be on the lookout for a verification email in your inbox.

You'll start receiving severe weather alerts in your inbox..

×

10-Day Weather Forecast

Almanac

Astronomy

Aug. 24, 2019 Rise Set
Actual Time
Civil Twilight
Nautical Twilight
Astronomical Twilight
Moon
Length of Visible Light
Length of Day
Tomorrow will be .
, % of the Moon is Illuminated

Today's Extremes

State Highs State Lows

Community

WunderPhotos

Category 6

Welcome to Category 6. This is the collective home for Weather Underground's featured writeups by Dr. Jeff Masters (right), Bob Henson (left), Chris Burt, and other regular contributors.

Nearby

Air Quality

  Air Quality AQ Index Pollutant
Not available.

Snow Depth

Station Depth Elevation

Earthquake Activity

City Distance Mag. Time & Date
Minimum magnitude displayed is 2.5.

Coastal Water Temperatures

Place Temperature

Stations

Nearby Weather Stations

Station Location Temp. Windchill Dew Point Humidity Wind Precip. Elev Updated Type
                   

Watches & Warnings

Flood Warning
Issued: 4:55 PM GMT Aug. 24, 2019 – National Weather Service

... For the Osage river near Schell City...
* at 11:45 am Saturday the stage was 30.5 feet.
* Flood stage is 30.0 feet.
* Minor flooding is occurring and minor flooding is forecast.

* Forecast... the river has crested and will continue to fall to below
flood stage by tomorrow evening.
* Impact... at 31.0 feet... flood waters impact low lying areas west of
Schell City. County roads west and north of Route M become
flooded. The four river conservation area 10 miles west of Schell
City floods.



               Flood observed forecast 7 am

Location stage stage day time sun Mon Tue

Osage river basin
Schell City 30 30.5 Sat 12 PM 30.3 29.2 27.1




Lat... Lon 3807 9415 3806 9406 3799 9406 3803 9416